createdAt,value
2023-03-31T00:01:01.001Z,12.70
2023-03-31T00:03:28.252Z,13.95
2023-03-31T00:06:02.085Z,16.58
2023-03-31T00:08:35.775Z,14.73
2023-03-31T00:11:05.436Z,15.55
2023-03-31T00:13:32.431Z,15.93
2023-03-31T00:16:06.160Z,14.52
2023-03-31T00:18:33.747Z,13.50
2023-03-31T00:21:24.913Z,14.70
2023-03-31T00:23:58.386Z,13.90
2023-03-31T00:26:26.485Z,14.60
2023-03-31T00:28:54.040Z,15.48
2023-03-31T00:31:22.449Z,14.23
2023-03-31T00:33:50.037Z,14.05
2023-03-31T00:36:21.517Z,14.27
2023-03-31T00:38:49.400Z,14.82
2023-03-31T00:41:16.805Z,12.43
2023-03-31T00:44:08.689Z,13.70
2023-03-31T00:46:52.815Z,13.88
2023-03-31T00:49:31.463Z,13.68
2023-03-31T00:52:37.500Z,13.80
2023-03-31T00:55:10.038Z,14.45
2023-03-31T00:57:41.028Z,13.52
2023-03-31T01:00:17.017Z,13.55
2023-03-31T01:02:52.686Z,14.98
2023-03-31T01:05:23.190Z,13.10
2023-03-31T01:07:51.998Z,12.77
2023-03-31T01:10:18.956Z,14.25
2023-03-31T01:12:56.066Z,14.43
2023-03-31T01:15:23.449Z,13.70
2023-03-31T01:17:55.998Z,14.40
2023-03-31T01:20:50.835Z,14.45
2023-03-31T01:23:21.006Z,14.02
2023-03-31T01:26:33.481Z,13.63
2023-03-31T01:29:18.606Z,13.63
2023-03-31T01:32:18.128Z,13.25
2023-03-31T01:34:53.819Z,14.38
2023-03-31T01:37:39.291Z,13.68
2023-03-31T01:40:24.439Z,12.63
2023-03-31T01:45:54.181Z,12.93
2023-03-31T01:48:23.923Z,13.50
2023-03-31T01:50:58.889Z,13.95
2023-03-31T01:53:47.317Z,13.63
2023-03-31T01:56:22.608Z,14.18
2023-03-31T01:58:58.674Z,12.90
2023-03-31T02:01:38.192Z,14.10
2023-03-31T02:04:10.703Z,13.88
2023-03-31T02:06:42.889Z,13.70
2023-03-31T02:09:15.928Z,13.32
2023-03-31T02:11:45.774Z,12.52
2023-03-31T02:14:19.386Z,14.02
2023-03-31T02:16:50.375Z,13.93
2023-03-31T02:19:19.438Z,13.55
2023-03-31T02:21:50.166Z,13.88
2023-03-31T02:24:20.420Z,14.30
2023-03-31T02:27:14.156Z,11.40
2023-03-31T02:29:41.554Z,12.23
2023-03-31T02:32:25.973Z,12.50
2023-03-31T02:34:55.188Z,12.55
2023-03-31T02:37:22.817Z,12.45
2023-03-31T02:39:52.922Z,12.95
2023-03-31T02:42:20.385Z,11.80
2023-03-31T02:44:50.072Z,11.93
2023-03-31T02:47:19.297Z,13.63
2023-03-31T02:49:51.616Z,12.98
2023-03-31T02:52:40.549Z,14.40
2023-03-31T02:55:53.408Z,13.20
2023-03-31T02:58:42.409Z,12.85
2023-03-31T03:01:24.070Z,13.13
2023-03-31T03:04:17.073Z,12.65
2023-03-31T03:07:22.268Z,13.30
2023-03-31T03:10:04.829Z,12.70
2023-03-31T03:12:43.229Z,13.35
2023-03-31T03:15:21.589Z,13.38
2023-03-31T03:17:50.126Z,12.90
2023-03-31T03:20:20.255Z,12.40
2023-03-31T03:22:47.952Z,12.73
2023-03-31T03:25:17.395Z,12.90
2023-03-31T03:27:44.301Z,14.35
2023-03-31T03:30:13.165Z,14.10
2023-03-31T03:32:41.519Z,13.20
2023-03-31T03:35:08.978Z,15.15
2023-03-31T03:37:36.121Z,13.13
2023-03-31T03:40:05.913Z,13.60
2023-03-31T03:42:34.263Z,13.88
2023-03-31T03:45:01.662Z,13.82
2023-03-31T03:47:29.151Z,14.00
2023-03-31T03:49:56.538Z,13.80
2023-03-31T03:52:23.414Z,13.80
2023-03-31T03:54:50.272Z,14.88
2023-03-31T03:57:17.328Z,14.27
2023-03-31T03:59:44.368Z,14.60
2023-03-31T04:02:11.483Z,15.27
2023-03-31T04:04:38.398Z,15.15
2023-03-31T04:07:06.108Z,16.88
2023-03-31T04:09:33.041Z,15.35
2023-03-31T04:12:00.130Z,15.00
2023-03-31T04:14:27.250Z,16.10
2023-03-31T04:16:56.568Z,17.33
2023-03-31T04:19:26.147Z,16.27
2023-03-31T04:21:59.035Z,16.77
2023-03-31T04:24:30.752Z,16.30
2023-03-31T04:26:58.105Z,17.48
2023-03-31T04:29:26.837Z,17.38
2023-03-31T04:31:58.886Z,18.70
2023-03-31T04:34:35.227Z,15.00
2023-03-31T04:37:03.086Z,15.07
2023-03-31T04:39:31.238Z,14.63
2023-03-31T04:41:59.078Z,16.23
2023-03-31T04:44:27.377Z,17.05
2023-03-31T04:46:55.128Z,15.93
2023-03-31T04:49:22.462Z,15.63
2023-03-31T04:51:49.440Z,14.85
2023-03-31T04:54:16.681Z,16.35
2023-03-31T04:56:46.663Z,17.05
2023-03-31T04:59:13.745Z,16.92
2023-03-31T05:01:45.190Z,17.83
2023-03-31T05:04:12.146Z,18.65
2023-03-31T05:06:39.003Z,19.02
2023-03-31T05:09:06.658Z,18.90
2023-03-31T05:11:33.624Z,18.85
2023-03-31T05:14:00.706Z,18.90
2023-03-31T05:16:28.758Z,19.17
2023-03-31T05:18:55.764Z,19.45
2023-03-31T05:21:22.962Z,19.00
2023-03-31T05:23:50.297Z,20.23
2023-03-31T05:26:17.248Z,19.42
2023-03-31T05:28:44.449Z,20.50
2023-03-31T05:31:13.134Z,19.75
2023-03-31T05:33:42.132Z,21.15
2023-03-31T05:36:12.053Z,22.30
2023-03-31T05:38:39.354Z,21.23
2023-03-31T05:41:07.267Z,20.55
2023-03-31T05:43:34.189Z,23.00
2023-03-31T05:46:01.509Z,24.25
2023-03-31T05:48:28.604Z,23.83
2023-03-31T05:50:59.650Z,23.65
2023-03-31T05:53:27.683Z,23.50
2023-03-31T05:56:03.154Z,23.45
2023-03-31T05:58:30.529Z,25.67
2023-03-31T06:01:08.852Z,27.45
2023-03-31T06:03:38.336Z,27.27
2023-03-31T06:06:06.343Z,26.75
2023-03-31T06:08:33.316Z,24.80
2023-03-31T06:11:00.807Z,23.15
2023-03-31T06:13:27.654Z,24.00
2023-03-31T06:16:00.095Z,21.20
2023-03-31T06:18:29.201Z,22.38
2023-03-31T06:20:57.015Z,23.08
2023-03-31T06:23:24.966Z,21.17
2023-03-31T06:25:53.154Z,21.73
2023-03-31T06:28:21.536Z,21.48
2023-03-31T06:30:48.514Z,21.38
2023-03-31T06:33:16.545Z,21.38
2023-03-31T06:35:43.406Z,19.85
2023-03-31T06:38:10.797Z,22.50
2023-03-31T06:40:37.837Z,20.58
2023-03-31T06:43:04.761Z,20.77
2023-03-31T06:45:31.557Z,22.88
2023-03-31T06:47:58.851Z,22.30
2023-03-31T06:50:25.846Z,21.60
2023-03-31T06:52:55.167Z,23.70
2023-03-31T06:55:22.317Z,24.42
2023-03-31T06:57:49.148Z,23.38
2023-03-31T07:00:16.870Z,24.10
2023-03-31T07:02:43.766Z,26.20
2023-03-31T07:05:11.124Z,27.05
2023-03-31T07:07:38.082Z,25.98
2023-03-31T07:10:05.689Z,25.52
2023-03-31T07:12:35.650Z,26.10
2023-03-31T07:15:02.537Z,26.70
2023-03-31T07:17:29.468Z,24.15
2023-03-31T07:19:56.548Z,23.75
2023-03-31T07:39:45.736Z,22.13
2023-03-31T07:42:12.688Z,23.10
2023-03-31T07:44:39.601Z,22.83
2023-03-31T07:47:06.542Z,23.02
2023-03-31T07:49:34.691Z,26.20
2023-03-31T07:52:01.993Z,24.48
2023-03-31T07:54:29.108Z,23.95
2023-03-31T07:56:56.238Z,23.65
2023-03-31T07:59:23.266Z,21.02
2023-03-31T08:01:50.925Z,21.33
2023-03-31T08:04:18.016Z,22.10
2023-03-31T08:06:44.880Z,20.15
2023-03-31T08:09:12.005Z,19.45
2023-03-31T08:11:38.844Z,19.88
2023-03-31T08:14:05.803Z,20.92
2023-03-31T08:16:32.906Z,20.58
2023-03-31T08:18:59.765Z,20.00
2023-03-31T08:21:28.642Z,20.35
2023-03-31T08:23:56.165Z,22.65
2023-03-31T08:26:25.476Z,19.13
2023-03-31T08:28:53.357Z,19.70
2023-03-31T08:31:21.658Z,21.58
2023-03-31T08:33:48.621Z,19.88
2023-03-31T08:36:15.629Z,20.33
2023-03-31T08:38:46.188Z,21.70
2023-03-31T08:41:36.632Z,23.17
2023-03-31T08:44:11.099Z,24.27
2023-03-31T08:49:07.580Z,24.25
2023-03-31T08:51:41.397Z,22.67
2023-03-31T08:54:17.073Z,22.67
2023-03-31T08:56:49.423Z,23.35
2023-03-31T08:59:36.366Z,22.70
2023-03-31T09:02:03.496Z,20.67
2023-03-31T09:05:00.945Z,24.17
2023-03-31T09:07:39.939Z,27.30
2023-03-31T09:10:13.145Z,24.23
2023-03-31T09:12:49.916Z,25.45
2023-03-31T09:15:28.517Z,26.00
2023-03-31T09:17:59.679Z,24.30
2023-03-31T09:20:33.200Z,23.25
2023-03-31T09:23:34.158Z,22.92
2023-03-31T09:26:03.440Z,20.95
2023-03-31T09:28:39.288Z,20.83
2023-03-31T09:31:14.613Z,21.10
2023-03-31T09:33:46.021Z,21.33
2023-03-31T09:36:19.018Z,21.85
2023-03-31T09:38:47.468Z,22.25
2023-03-31T09:41:16.767Z,22.40
2023-03-31T09:43:46.366Z,20.67
2023-03-31T09:46:26.007Z,21.08
2023-03-31T09:49:00.538Z,6.53
2023-03-31T09:51:32.759Z,7.00
2023-03-31T09:54:12.490Z,6.53
2023-03-31T09:56:42.325Z,4.70
2023-03-31T09:59:18.456Z,4.65
2023-03-31T10:01:48.084Z,4.93
2023-03-31T10:04:27.818Z,5.93
2023-03-31T10:06:56.444Z,4.50
2023-03-31T10:09:28.593Z,4.15
2023-03-31T10:12:04.744Z,6.55
2023-03-31T10:14:44.531Z,5.47
2023-03-31T10:17:17.062Z,5.95
2023-03-31T10:20:19.116Z,5.05
2023-03-31T10:22:46.322Z,5.30
2023-03-31T10:25:20.788Z,5.80
2023-03-31T10:27:53.075Z,5.80
2023-03-31T10:30:27.166Z,7.55
2023-03-31T10:32:54.915Z,6.47
2023-03-31T10:35:27.088Z,7.25
2023-03-31T10:38:03.344Z,7.47
2023-03-31T10:40:34.786Z,6.13
2023-03-31T10:43:13.101Z,7.32
2023-03-31T10:45:56.430Z,6.18
2023-03-31T10:48:28.058Z,4.75
2023-03-31T10:50:59.979Z,4.95
2023-03-31T10:53:29.534Z,6.53
2023-03-31T10:56:02.509Z,4.60
2023-03-31T10:59:04.248Z,3.88
2023-03-31T11:01:50.725Z,4.57
2023-03-31T11:04:32.564Z,4.18
2023-03-31T11:07:27.506Z,4.03
2023-03-31T11:10:22.766Z,3.75
2023-03-31T11:12:59.684Z,3.20
2023-03-31T11:15:39.596Z,5.05
2023-03-31T11:18:36.096Z,3.45
2023-03-31T11:21:33.246Z,5.22
2023-03-31T11:24:15.422Z,4.15
2023-03-31T11:27:25.925Z,6.72
2023-03-31T11:30:10.935Z,5.30
2023-03-31T11:32:49.710Z,5.72
2023-03-31T11:35:32.965Z,5.45
2023-03-31T11:38:02.867Z,7.85
2023-03-31T11:40:38.573Z,5.80
2023-03-31T11:43:14.789Z,6.75
2023-03-31T11:45:51.017Z,7.60
2023-03-31T11:48:32.201Z,5.72
2023-03-31T11:51:02.151Z,6.38
2023-03-31T11:53:36.818Z,7.68
2023-03-31T11:56:08.065Z,4.63
2023-03-31T11:58:44.594Z,4.65
2023-03-31T12:01:17.256Z,4.70
2023-03-31T12:03:47.333Z,3.65
2023-03-31T12:06:19.991Z,4.65
2023-03-31T12:09:12.138Z,5.47
2023-03-31T12:11:46.791Z,6.43
2023-03-31T12:14:33.806Z,6.10
2023-03-31T12:17:09.341Z,7.60
2023-03-31T12:19:51.374Z,7.22
2023-03-31T12:22:27.098Z,8.23
2023-03-31T12:24:54.516Z,8.70
2023-03-31T12:27:30.724Z,8.95
2023-03-31T12:30:07.370Z,10.15
2023-03-31T12:32:42.583Z,6.97
2023-03-31T12:35:12.498Z,7.25
2023-03-31T12:38:10.790Z,7.60
2023-03-31T12:41:04.373Z,6.80
2023-03-31T12:43:33.813Z,6.40
2023-03-31T12:46:33.059Z,9.15
2023-03-31T12:49:18.746Z,5.70
2023-03-31T12:52:01.456Z,5.13
2023-03-31T12:54:43.629Z,4.35
2023-03-31T12:57:10.620Z,5.28
2023-03-31T13:00:05.330Z,4.95
2023-03-31T13:02:32.269Z,5.03
2023-03-31T13:04:59.178Z,4.65
2023-03-31T13:07:29.109Z,4.90
2023-03-31T13:10:19.936Z,6.50
2023-03-31T13:13:16.564Z,6.15
2023-03-31T13:16:02.807Z,6.18
2023-03-31T13:18:33.747Z,5.28
2023-03-31T13:21:23.295Z,6.03
2023-03-31T13:23:50.957Z,5.40
2023-03-31T13:26:32.867Z,6.50
2023-03-31T13:29:21.670Z,7.07
2023-03-31T13:32:25.653Z,7.57
2023-03-31T13:35:00.892Z,7.70
2023-03-31T13:37:54.837Z,8.38
2023-03-31T13:40:57.351Z,6.93
2023-03-31T13:43:27.320Z,7.72
2023-03-31T13:46:10.452Z,8.20
2023-03-31T13:48:57.654Z,9.70
2023-03-31T13:51:47.370Z,7.63
2023-03-31T13:54:45.866Z,10.55
2023-03-31T13:57:39.460Z,9.82
2023-03-31T14:00:12.747Z,10.10
2023-03-31T14:02:57.433Z,9.13
2023-03-31T14:05:31.364Z,9.55
2023-03-31T14:08:02.548Z,9.57
2023-03-31T14:10:34.220Z,9.75
2023-03-31T14:13:09.958Z,7.30
2023-03-31T14:15:40.970Z,7.45
2023-03-31T14:18:10.911Z,8.95
2023-03-31T14:20:47.622Z,7.57
2023-03-31T14:23:29.782Z,7.40
2023-03-31T14:26:04.560Z,7.93
2023-03-31T14:28:54.317Z,8.38
2023-03-31T14:32:02.558Z,6.05
2023-03-31T14:34:39.908Z,6.55
2023-03-31T14:37:21.867Z,7.50
2023-03-31T14:39:56.482Z,10.02
2023-03-31T14:42:40.656Z,8.65
2023-03-31T14:45:18.585Z,8.23
2023-03-31T14:47:56.987Z,6.57
2023-03-31T14:50:38.182Z,9.07
2023-03-31T14:53:05.213Z,9.00
2023-03-31T14:55:49.289Z,8.18
2023-03-31T14:58:29.802Z,10.20
2023-03-31T15:00:56.932Z,7.80
2023-03-31T15:03:26.123Z,9.68
2023-03-31T15:06:01.249Z,12.50
2023-03-31T15:08:30.531Z,17.40
2023-03-31T15:11:12.992Z,15.90
2023-03-31T15:14:05.146Z,16.00
2023-03-31T15:16:45.580Z,15.85
2023-03-31T15:19:16.624Z,16.90
2023-03-31T15:21:44.823Z,15.55
2023-03-31T15:24:13.939Z,15.55
2023-03-31T15:26:50.076Z,26.58
2023-03-31T15:29:20.167Z,17.58
2023-03-31T15:31:48.321Z,17.85
2023-03-31T15:34:23.000Z,20.73
2023-03-31T15:36:50.189Z,18.98
2023-03-31T15:39:17.185Z,17.98
2023-03-31T15:41:47.024Z,16.73
2023-03-31T15:44:32.576Z,15.40
2023-03-31T15:47:13.043Z,16.23
2023-03-31T15:49:50.026Z,14.90
2023-03-31T15:52:42.080Z,16.08
2023-03-31T15:55:41.200Z,17.95
2023-03-31T15:58:15.793Z,15.75
2023-03-31T16:00:47.519Z,15.88
2023-03-31T16:03:17.126Z,15.35
2023-03-31T16:05:55.799Z,14.88
2023-03-31T16:08:38.228Z,14.10
2023-03-31T16:11:09.803Z,17.50
2023-03-31T16:13:40.906Z,13.35
2023-03-31T16:16:11.009Z,14.05
2023-03-31T16:18:42.576Z,14.70
2023-03-31T16:21:10.038Z,14.57
2023-03-31T16:23:41.664Z,13.02
2023-03-31T16:26:08.768Z,15.35
2023-03-31T16:28:37.410Z,14.40
2023-03-31T16:31:06.133Z,16.05
2023-03-31T16:33:54.165Z,16.80
2023-03-31T16:36:21.165Z,17.25
2023-03-31T16:38:48.885Z,19.27
2023-03-31T16:41:16.107Z,22.08
2023-03-31T16:43:45.475Z,20.40
2023-03-31T16:46:12.815Z,21.08
2023-03-31T16:48:39.791Z,21.38
2023-03-31T16:51:06.812Z,21.13
2023-03-31T16:53:35.923Z,18.48
2023-03-31T16:56:05.005Z,24.70
2023-03-31T16:58:32.042Z,29.48
2023-03-31T17:00:59.012Z,25.25
2023-03-31T17:03:26.950Z,29.75
2023-03-31T17:05:58.615Z,37.83
2023-03-31T17:08:27.868Z,34.88
2023-03-31T17:11:11.058Z,32.53
2023-03-31T17:13:39.712Z,33.60
2023-03-31T17:16:17.531Z,37.25
2023-03-31T17:18:49.312Z,37.55
2023-03-31T17:21:19.319Z,32.45
2023-03-31T17:23:47.757Z,33.15
2023-03-31T17:26:15.568Z,29.20
2023-03-31T17:28:43.131Z,20.17
2023-03-31T17:31:18.652Z,23.42
2023-03-31T17:33:46.325Z,21.15
2023-03-31T17:36:13.744Z,19.73
2023-03-31T17:38:42.306Z,29.25
2023-03-31T17:41:12.987Z,32.00
2023-03-31T17:43:40.608Z,25.67
2023-03-31T17:46:13.011Z,21.73
2023-03-31T17:48:40.894Z,20.77
2023-03-31T17:51:14.930Z,17.85
2023-03-31T17:53:44.433Z,18.00
2023-03-31T17:56:12.157Z,17.95
2023-03-31T17:58:39.705Z,18.60
2023-03-31T18:01:08.861Z,20.25
2023-03-31T18:03:36.721Z,20.98
2023-03-31T18:06:07.909Z,17.48
2023-03-31T18:08:36.287Z,17.80
2023-03-31T18:11:05.330Z,16.60
2023-03-31T18:13:34.763Z,21.50
2023-03-31T18:16:02.682Z,19.98
2023-03-31T18:18:29.767Z,15.25
2023-03-31T18:20:57.412Z,18.27
2023-03-31T18:23:24.403Z,15.40
2023-03-31T18:25:51.821Z,49.75
2023-03-31T18:28:18.929Z,29.13
2023-03-31T18:30:47.376Z,18.00
2023-03-31T18:33:15.720Z,18.70
2023-03-31T18:35:42.931Z,24.00
2023-03-31T18:38:10.013Z,17.15
2023-03-31T18:40:38.499Z,18.83
2023-03-31T18:43:06.195Z,17.92
2023-03-31T18:45:33.096Z,17.05
2023-03-31T18:48:00.406Z,15.95
2023-03-31T18:50:27.399Z,17.38
2023-03-31T18:52:54.858Z,13.55
2023-03-31T18:55:22.513Z,13.60
2023-03-31T18:57:49.619Z,19.38
2023-03-31T19:00:17.394Z,19.20
2023-03-31T19:02:44.844Z,16.42
2023-03-31T19:05:12.201Z,15.73
2023-03-31T19:07:40.418Z,16.17
2023-03-31T19:10:08.032Z,15.98
2023-03-31T19:12:34.988Z,18.30
2023-03-31T19:15:02.224Z,17.63
2023-03-31T19:17:29.151Z,18.60
2023-03-31T19:19:56.131Z,18.15
2023-03-31T19:22:22.997Z,23.17
2023-03-31T19:24:49.873Z,20.60
2023-03-31T19:27:16.861Z,18.15
2023-03-31T19:41:53.328Z,18.42
2023-03-31T19:44:20.266Z,21.48
2023-03-31T19:46:48.294Z,20.20
2023-03-31T19:49:15.588Z,22.33
2023-03-31T19:51:42.492Z,23.85
2023-03-31T19:54:11.465Z,23.75
2023-03-31T19:56:39.030Z,20.70
2023-03-31T19:59:06.363Z,19.83
2023-03-31T20:01:33.696Z,20.65
2023-03-31T20:04:01.026Z,12.02
2023-03-31T20:06:30.861Z,16.48
2023-03-31T20:09:00.882Z,20.42
2023-03-31T20:11:30.972Z,15.40
2023-03-31T20:13:58.770Z,16.17
2023-03-31T20:16:28.265Z,16.02
2023-03-31T20:19:04.926Z,20.90
2023-03-31T20:21:35.480Z,20.77
2023-03-31T20:24:02.925Z,20.40
2023-03-31T20:26:32.133Z,22.50
2023-03-31T20:29:04.472Z,20.60
2023-03-31T20:31:36.693Z,24.80
2023-03-31T20:34:06.896Z,26.15
2023-03-31T20:36:34.450Z,25.13
2023-03-31T20:39:04.385Z,26.80
2023-03-31T20:41:32.036Z,26.60
2023-03-31T20:43:59.363Z,25.77
2023-03-31T20:46:26.713Z,28.42
2023-03-31T20:48:56.678Z,27.10
2023-03-31T20:51:28.245Z,26.92
2023-03-31T20:53:56.696Z,28.90
2023-03-31T20:56:43.118Z,27.42
2023-03-31T20:59:12.464Z,28.85
2023-03-31T21:01:39.972Z,25.58
2023-03-31T21:04:09.841Z,28.13
2023-03-31T21:06:40.040Z,28.48
2023-03-31T21:09:07.465Z,27.50
2023-03-31T21:11:34.620Z,25.55
2023-03-31T21:14:02.014Z,27.00
2023-03-31T21:16:29.092Z,27.73
2023-03-31T21:18:57.143Z,25.15
2023-03-31T21:21:25.009Z,24.40
2023-03-31T21:23:52.096Z,24.85
2023-03-31T21:26:19.770Z,24.65
2023-03-31T21:28:46.796Z,21.25
2023-03-31T21:31:19.902Z,23.85
2023-03-31T21:33:47.260Z,21.42
2023-03-31T21:36:17.917Z,18.27
2023-03-31T21:38:45.786Z,18.17
2023-03-31T21:41:18.276Z,17.98
2023-03-31T21:43:46.197Z,15.77
2023-03-31T21:46:17.842Z,16.33
2023-03-31T21:48:45.079Z,16.88
2023-03-31T21:51:15.334Z,16.05
2023-03-31T21:53:42.263Z,16.50
2023-03-31T21:56:09.458Z,15.80
2023-03-31T21:58:39.384Z,12.55
2023-03-31T22:01:07.729Z,13.65
2023-03-31T22:03:35.692Z,13.77
2023-03-31T22:06:04.080Z,12.15
2023-03-31T22:08:31.772Z,12.98
2023-03-31T22:11:00.545Z,11.32
2023-03-31T22:13:29.101Z,14.95
2023-03-31T22:15:56.512Z,13.13
2023-03-31T22:18:23.799Z,11.10
2023-03-31T22:20:51.248Z,11.40
2023-03-31T22:23:20.701Z,10.65
2023-03-31T22:25:48.178Z,10.88
2023-03-31T22:28:17.070Z,11.55
2023-03-31T22:30:44.274Z,12.00
2023-03-31T22:33:22.162Z,11.63
2023-03-31T22:36:09.840Z,13.15
2023-03-31T22:38:36.846Z,11.60
2023-03-31T22:41:03.835Z,14.32
2023-03-31T22:43:32.558Z,12.63
2023-03-31T22:46:07.249Z,12.77
2023-03-31T22:48:34.666Z,13.13
2023-03-31T22:51:08.961Z,11.70
2023-03-31T22:56:08.730Z,11.45
2023-03-31T22:58:35.731Z,12.45
2023-03-31T23:01:02.711Z,10.55
2023-03-31T23:03:29.695Z,12.85
2023-03-31T23:06:03.381Z,11.68
2023-03-31T23:08:30.351Z,11.60
2023-03-31T23:10:59.366Z,9.90
2023-03-31T23:13:27.229Z,10.25
2023-03-31T23:15:54.397Z,10.82
2023-03-31T23:18:22.613Z,11.57
2023-03-31T23:20:49.598Z,9.80
2023-03-31T23:23:16.612Z,9.32
2023-03-31T23:25:43.518Z,9.38
2023-03-31T23:28:10.358Z,10.63
2023-03-31T23:30:37.261Z,10.50
2023-03-31T23:33:04.321Z,8.50
2023-03-31T23:35:31.449Z,7.90
2023-03-31T23:37:58.698Z,10.23
2023-03-31T23:40:25.575Z,9.63
2023-03-31T23:42:52.483Z,9.60
2023-03-31T23:45:19.492Z,8.70
2023-03-31T23:47:46.425Z,11.35
2023-03-31T23:50:13.367Z,8.43
2023-03-31T23:52:40.214Z,8.60
2023-03-31T23:55:07.453Z,7.97
2023-03-31T23:57:34.436Z,8.35
